Time;durP1;ratioP1;P1;durP2;ratioP2;P2;SDS_P1;SDS_P2;PMS_P1;PMS_P2;Temp;Humidity;BMP_temperature;BMP_pressure;BME280_temperature;BME280_humidity;BME280_pressure;Samples;Min_cycle;Max_cycle;Signal;HPM_P1;HPM_P2
2020/12/25 00:02:18;;;;;;;8.07;2.17;;;;;;;-147.27;100.00;65176.34;5025760;28;20438;-61
2020/12/25 00:04:44;;;;;;;8.30;1.87;;;;;;;-147.27;100.00;65176.34;5018478;28;20175;-58
2020/12/25 00:07:09;;;;;;;9.83;2.57;;;;;;;-147.27;100.00;65176.34;5037495;28;20112;-59
2020/12/25 00:09:35;;;;;;;6.60;2.25;;;;;;;-147.27;100.00;65176.34;5019166;28;20065;-60
2020/12/25 00:12:00;;;;;;;6.47;1.87;;;;;;;-147.27;100.00;65176.34;5020968;28;20401;-59
2020/12/25 00:14:26;;;;;;;6.00;1.80;;;;;;;-147.27;100.00;65176.34;5028520;28;20045;-60
2020/12/25 00:16:52;;;;;;;8.35;2.28;;;;;;;-147.27;100.00;65176.34;5031259;28;20048;-60
2020/12/25 00:19:17;;;;;;;8.50;2.00;;;;;;;-147.27;100.00;65176.34;5031981;28;20032;-61
2020/12/25 00:21:42;;;;;;;6.97;3.07;;;;;;;-147.27;100.00;65176.34;5031070;28;20304;-61
2020/12/25 00:24:09;;;;;;;6.40;2.10;;;;;;;-147.27;100.00;65176.34;5030655;28;20069;-61
2020/12/25 00:26:34;;;;;;;4.63;2.03;;;;;;;-147.27;100.00;65176.34;5031250;28;20088;-61
2020/12/25 00:29:01;;;;;;;7.80;1.87;;;;;;;-147.27;100.00;65176.34;5031871;28;20389;-61
2020/12/25 00:31:34;;;;;;;5.45;1.67;;;;;;;-147.27;100.00;65176.34;5031718;28;20061;-60
2020/12/25 00:34:05;;;;;;;10.27;1.70;;;;;;;-147.27;100.00;65176.34;5027308;28;20055;-59
2020/12/25 00:36:36;;;;;;;5.70;1.55;;;;;;;-147.27;100.00;65176.34;5030065;28;20048;-60
2020/12/25 00:39:10;;;;;;;8.75;1.85;;;;;;;-147.27;100.00;65176.34;5027570;28;20040;-61
2020/12/25 00:41:54;;;;;;;10.20;2.85;;;;;;;-147.27;100.00;65176.34;5029006;28;20501;-60
2020/12/25 00:44:20;;;;;;;7.18;2.10;;;;;;;-147.27;100.00;65176.34;5021483;28;20037;-61
2020/12/25 00:46:46;;;;;;;7.17;1.60;;;;;;;-147.27;100.00;65176.34;5028842;28;20465;-61
2020/12/25 00:49:12;;;;;;;;;;;;;;;-147.27;100.00;65176.34;5030565;28;20123;-61
2020/12/25 00:51:39;;;;;;;10.93;1.93;;;;;;;-147.27;100.00;65176.34;5030817;28;20427;-59
2020/12/25 00:54:04;;;;;;;6.43;1.45;;;;;;;-147.27;100.00;65176.34;5028908;28;20469;-60
2020/12/25 00:56:59;;;;;;;4.40;1.60;;;;;;;-147.27;100.00;65176.34;5023526;28;20057;-60
2020/12/25 00:59:39;;;;;;;3.38;1.40;;;;;;;-147.27;100.00;65176.34;5029350;28;20041;-65
2020/12/25 01:02:04;;;;;;;7.47;1.63;;;;;;;-147.27;100.00;65176.34;5031302;28;20059;-60
2020/12/25 01:04:30;;;;;;;3.93;1.20;;;;;;;-147.27;100.00;65176.34;5029974;28;20036;-60
2020/12/25 01:06:55;;;;;;;11.13;1.50;;;;;;;-147.27;100.00;65176.34;5018320;28;20370;-60
2020/12/25 01:09:24;;;;;;;4.00;1.60;;;;;;;-147.27;100.00;65176.34;5020680;28;20026;-60
2020/12/25 01:11:49;;;;;;;9.77;2.95;;;;;;;-147.27;100.00;65176.34;5018277;28;20114;-60
2020/12/25 01:14:15;;;;;;;7.03;1.52;;;;;;;-147.27;100.00;65176.34;5018904;28;20134;-59
2020/12/25 01:16:40;;;;;;;6.23;1.23;;;;;;;-147.27;100.00;65176.34;5019261;28;20114;-59
2020/12/25 01:19:06;;;;;;;6.07;1.87;;;;;;;-147.27;100.00;65176.34;5036627;28;20041;-59
2020/12/25 01:21:31;;;;;;;5.33;1.13;;;;;;;-147.27;100.00;65176.34;5019429;28;20381;-60
2020/12/25 01:23:57;;;;;;;6.47;1.23;;;;;;;-147.27;100.00;65176.34;5034687;28;20049;-60
2020/12/25 01:26:22;;;;;;;10.20;1.15;;;;;;;-147.27;100.00;65176.34;5020815;28;20030;-59
2020/12/25 01:28:49;;;;;;;6.33;1.20;;;;;;;-147.27;100.00;65176.34;5018028;28;20029;-60
2020/12/25 01:31:14;;;;;;;4.55;1.15;;;;;;;-147.27;100.00;65176.34;5019330;28;20116;-60
2020/12/25 01:33:40;;;;;;;12.30;2.90;;;;;;;-147.27;100.00;65176.34;5019040;28;20113;-60
2020/12/25 01:36:05;;;;;;;4.05;1.42;;;;;;;-147.27;100.00;65176.34;5027874;28;20046;-60
2020/12/25 01:38:32;;;;;;;11.93;1.70;;;;;;;-147.27;100.00;65176.34;5030924;28;20148;-60
2020/12/25 01:40:58;;;;;;;7.85;1.52;;;;;;;-147.27;100.00;65176.34;5045708;28;20449;-59
2020/12/25 01:43:24;;;;;;;6.03;1.30;;;;;;;-147.27;100.00;65176.34;5030940;28;20033;-61
2020/12/25 01:45:49;;;;;;;4.15;1.10;;;;;;;-147.27;100.00;65176.34;5030511;28;20377;-60
2020/12/25 01:48:15;;;;;;;2.13;1.23;;;;;;;-147.27;100.00;65176.34;5029940;28;20041;-60
2020/12/25 01:50:41;;;;;;;11.57;1.37;;;;;;;-147.27;100.00;65176.34;5030713;28;20038;-60
2020/12/25 01:53:08;;;;;;;3.65;1.10;;;;;;;-147.27;100.00;65176.34;5031251;28;20061;-60
2020/12/25 01:55:34;;;;;;;2.53;0.93;;;;;;;-147.27;100.00;65176.34;5029694;28;20529;-59
2020/12/25 01:58:00;;;;;;;6.95;1.00;;;;;;;-147.27;100.00;65176.34;5030115;28;20128;-60
2020/12/25 02:00:29;;;;;;;4.47;1.10;;;;;;;-147.27;100.00;65176.34;5030677;28;20063;-60
2020/12/25 02:02:54;;;;;;;6.18;1.55;;;;;;;-147.27;100.00;65176.34;5030309;28;20048;-60
2020/12/25 02:05:21;;;;;;;7.50;1.40;;;;;;;-147.27;100.00;65176.34;5030889;28;20401;-60
2020/12/25 02:07:46;;;;;;;6.78;0.90;;;;;;;-147.27;100.00;65176.34;5030043;28;20092;-60
2020/12/25 02:10:12;;;;;;;3.33;0.93;;;;;;;-147.27;100.00;65176.34;5030923;28;20041;-60
2020/12/25 02:12:38;;;;;;;5.18;1.13;;;;;;;-147.27;100.00;65176.34;5030966;28;20194;-60
2020/12/25 02:15:05;;;;;;;4.45;1.35;;;;;;;-147.27;100.00;65176.34;5030086;28;20411;-59
2020/12/25 02:17:30;;;;;;;7.32;1.90;;;;;;;-147.27;100.00;65176.34;5030873;28;20048;-62
2020/12/25 02:19:56;;;;;;;5.73;1.57;;;;;;;-147.27;100.00;65176.34;5030154;28;20034;-60
2020/12/25 02:22:22;;;;;;;10.90;1.42;;;;;;;-147.27;100.00;65176.34;5030755;28;20259;-59
2020/12/25 02:24:47;;;;;;;4.33;1.27;;;;;;;-147.27;100.00;65176.34;5032186;28;20033;-60
2020/12/25 02:27:13;;;;;;;3.67;1.20;;;;;;;-147.27;100.00;65176.34;5033207;28;20452;-61
2020/12/25 02:29:38;;;;;;;4.80;1.27;;;;;;;-147.27;100.00;65176.34;5034400;28;20033;-61
2020/12/25 02:32:03;;;;;;;3.93;0.90;;;;;;;-147.27;100.00;65176.34;5033479;28;20033;-60
2020/12/25 02:34:29;;;;;;;8.43;1.10;;;;;;;-147.27;100.00;65176.34;5033950;28;20044;-60
2020/12/25 02:36:54;;;;;;;3.87;0.77;;;;;;;-147.27;100.00;65176.34;5048628;28;20053;-62
2020/12/25 02:39:20;;;;;;;3.97;0.80;;;;;;;-147.27;100.00;65176.34;5033911;28;20034;-61
2020/12/25 02:41:46;;;;;;;6.20;1.13;;;;;;;-147.27;100.00;65176.34;5033270;28;20083;-60
2020/12/25 02:44:11;;;;;;;6.75;0.85;;;;;;;-147.27;100.00;65176.34;5034218;28;20029;-61
2020/12/25 02:46:37;;;;;;;6.47;1.40;;;;;;;-147.27;100.00;65176.34;5033999;28;20114;-60
2020/12/25 02:49:02;;;;;;;4.93;1.07;;;;;;;-147.27;100.00;65176.34;5033265;28;20037;-61
2020/12/25 02:51:28;;;;;;;5.37;0.90;;;;;;;-147.27;100.00;65176.34;5033790;28;20124;-61
2020/12/25 02:53:53;;;;;;;7.27;1.53;;;;;;;-147.27;100.00;65176.34;5031903;28;20049;-60
2020/12/25 02:56:19;;;;;;;3.17;0.83;;;;;;;-147.27;100.00;65176.34;5033625;28;20095;-60
2020/12/25 02:58:45;;;;;;;3.33;0.77;;;;;;;-147.27;100.00;65176.34;5033243;28;20124;-59
2020/12/25 03:01:13;;;;;;;2.10;0.95;;;;;;;-147.27;100.00;65176.34;5033882;28;20167;-59
2020/12/25 03:03:39;;;;;;;5.40;1.10;;;;;;;-147.27;100.00;65176.34;5034017;28;20037;-61
2020/12/25 03:06:05;;;;;;;6.10;1.20;;;;;;;-147.27;100.00;65176.34;5032932;28;20091;-61
2020/12/25 03:08:31;;;;;;;5.53;0.82;;;;;;;-147.27;100.00;65176.34;5033695;28;20451;-60
2020/12/25 03:10:57;;;;;;;2.05;1.00;;;;;;;-147.27;100.00;65176.34;5033769;28;20033;-61
2020/12/25 03:13:22;;;;;;;5.93;0.73;;;;;;;-147.27;100.00;65176.34;5033807;28;20037;-60
2020/12/25 03:15:48;;;;;;;5.80;1.02;;;;;;;-147.27;100.00;65176.34;5032747;28;20053;-61
2020/12/25 03:18:13;;;;;;;1.47;0.53;;;;;;;-147.27;100.00;65176.34;5033424;28;20038;-60
2020/12/25 03:20:39;;;;;;;4.27;1.03;;;;;;;-147.27;100.00;65176.34;5033634;28;20036;-60
2020/12/25 03:23:04;;;;;;;7.20;1.13;;;;;;;-147.27;100.00;65176.34;5033157;28;20083;-60
2020/12/25 03:25:30;;;;;;;6.53;0.97;;;;;;;-147.27;100.00;65176.34;5033266;28;20038;-60
2020/12/25 03:27:55;;;;;;;5.80;2.27;;;;;;;-147.27;100.00;65176.34;5031515;28;20033;-60
2020/12/25 03:30:21;;;;;;;13.40;1.40;;;;;;;-147.27;100.00;65176.34;5033353;28;20116;-60
2020/12/25 03:32:46;;;;;;;6.03;1.03;;;;;;;-147.27;100.00;65176.34;5024632;28;20030;-55
2020/12/25 03:35:12;;;;;;;4.93;0.80;;;;;;;-147.27;100.00;65176.34;5011411;28;20414;-64
2020/12/25 03:37:37;;;;;;;5.03;0.93;;;;;;;-147.27;100.00;65176.34;5013213;28;20041;-61
2020/12/25 03:40:04;;;;;;;8.20;1.73;;;;;;;-147.27;100.00;65176.34;5027873;28;20056;-60
2020/12/25 03:42:30;;;;;;;1.00;0.50;;;;;;;-147.27;100.00;65176.34;5028633;28;20038;-60
2020/12/25 03:44:55;;;;;;;3.47;0.73;;;;;;;-147.27;100.00;65176.34;5012859;28;20041;-61
2020/12/25 03:47:23;;;;;;;5.47;1.23;;;;;;;-147.27;100.00;65176.34;5013414;28;20096;-60
2020/12/25 03:49:49;;;;;;;3.42;0.85;;;;;;;-147.27;100.00;65176.34;5012501;28;20049;-59
2020/12/25 03:52:14;;;;;;;4.07;0.60;;;;;;;-147.27;100.00;65176.34;5011999;28;20114;-60
2020/12/25 03:54:40;;;;;;;6.30;0.70;;;;;;;-147.27;100.00;65176.34;5013336;28;20053;-61
2020/12/25 03:57:05;;;;;;;5.17;0.93;;;;;;;-147.27;100.00;65176.34;5012816;28;20466;-59
2020/12/25 03:59:31;;;;;;;1.13;0.70;;;;;;;-147.27;100.00;65176.34;5013063;28;20435;-61
2020/12/25 04:01:57;;;;;;;3.15;0.70;;;;;;;-147.27;100.00;65176.34;5012568;28;20038;-60
2020/12/25 04:04:22;;;;;;;4.03;0.73;;;;;;;-147.27;100.00;65176.34;5013461;28;20474;-61
2020/12/25 04:06:48;;;;;;;4.73;0.60;;;;;;;-147.27;100.00;65176.34;5012822;28;20061;-61
2020/12/25 04:09:32;;;;;;;3.70;0.80;;;;;;;-147.27;100.00;65176.34;5014310;28;20474;-61
2020/12/25 04:11:57;;;;;;;5.78;1.10;;;;;;;-147.27;100.00;65176.34;5012655;28;20084;-60
2020/12/25 04:14:23;;;;;;;3.37;0.90;;;;;;;-147.27;100.00;65176.34;5012887;28;20041;-60
2020/12/25 04:16:48;;;;;;;2.67;0.83;;;;;;;-147.27;100.00;65176.34;5012611;28;20566;-63
2020/12/25 04:19:13;;;;;;;3.67;0.80;;;;;;;-147.27;100.00;65176.34;5027477;28;20069;-60
2020/12/25 04:21:40;;;;;;;5.63;0.90;;;;;;;-147.27;100.00;65176.34;5011416;28;20041;-61
2020/12/25 04:24:05;;;;;;;2.35;0.63;;;;;;;-147.27;100.00;65176.34;5011514;28;20034;-61
2020/12/25 04:26:31;;;;;;;3.05;0.80;;;;;;;-147.27;100.00;65176.34;5012409;28;20037;-60
2020/12/25 04:28:56;;;;;;;2.07;1.13;;;;;;;-147.27;100.00;65176.34;5011869;28;20068;-60
2020/12/25 04:31:26;;;;;;;1.77;0.60;;;;;;;-147.27;100.00;65176.34;5011981;28;20340;-60
2020/12/25 04:33:52;;;;;;;4.07;1.60;;;;;;;-147.27;100.00;65176.34;5012225;28;20038;-59
2020/12/25 04:36:18;;;;;;;;;;;;;;;-147.27;100.00;65176.34;5011189;28;20169;-60
2020/12/25 04:38:44;;;;;;;3.70;0.45;;;;;;;-147.27;100.00;65176.34;5027410;28;19913;-61
2020/12/25 04:41:10;;;;;;;2.90;0.57;;;;;;;-147.27;100.00;65176.34;5010323;28;20041;-60
2020/12/25 04:43:39;;;;;;;5.30;0.70;;;;;;;-147.27;100.00;65176.34;5012287;28;20100;-60
2020/12/25 04:46:05;;;;;;;3.15;0.68;;;;;;;-147.27;100.00;65176.34;5011515;28;20111;-60
2020/12/25 04:48:31;;;;;;;2.42;0.68;;;;;;;-147.27;100.00;65176.34;5011756;28;20107;-61
2020/12/25 04:50:56;;;;;;;2.23;0.80;;;;;;;-147.27;100.00;65176.34;5011387;28;20486;-60
2020/12/25 04:53:22;;;;;;;2.53;0.97;;;;;;;-147.27;100.00;65176.34;5012124;28;20041;-60
2020/12/25 04:55:48;;;;;;;2.10;0.70;;;;;;;-147.27;100.00;65176.34;5011708;28;20042;-60
2020/12/25 04:58:13;;;;;;;2.50;0.80;;;;;;;-147.27;100.00;65176.34;5011420;28;20330;-60
2020/12/25 05:00:39;;;;;;;4.43;0.90;;;;;;;-147.27;100.00;65176.34;5029908;28;20129;-60
2020/12/25 05:03:06;;;;;;;2.53;0.80;;;;;;;-147.27;100.00;65176.34;5030797;28;20482;-59
2020/12/25 05:05:32;;;;;;;3.00;1.05;;;;;;;-147.27;100.00;65176.34;5031603;28;20049;-60
2020/12/25 05:07:59;;;;;;;5.07;0.88;;;;;;;-147.27;100.00;65176.34;5030484;28;20118;-60
2020/12/25 05:10:26;;;;;;;2.30;1.00;;;;;;;-147.27;100.00;65176.34;5031385;28;20061;-60
2020/12/25 05:12:51;;;;;;;;;;;;;;;-147.27;100.00;65176.34;5031850;28;20095;-59
2020/12/25 05:15:17;;;;;;;2.57;0.80;;;;;;;-147.27;100.00;65176.34;5029449;28;19913;-60
2020/12/25 05:17:43;;;;;;;5.17;1.00;;;;;;;-147.27;100.00;65176.34;5031498;28;20068;-60
2020/12/25 05:20:09;;;;;;;4.00;1.30;;;;;;;-147.27;100.00;65176.34;5030834;28;20055;-61
2020/12/25 05:22:36;;;;;;;5.32;1.40;;;;;;;-147.27;100.00;65176.34;5027555;28;20049;-60
2020/12/25 05:25:06;;;;;;;8.30;1.90;;;;;;;-147.27;100.00;65176.34;5023342;28;20044;-59
2020/12/25 05:27:32;;;;;;;7.72;2.45;;;;;;;-147.27;100.00;65176.34;5031536;28;20274;-60
2020/12/25 05:30:03;;;;;;;5.30;1.55;;;;;;;-147.27;100.00;65176.34;5029328;28;20091;-58
2020/12/25 05:32:30;;;;;;;7.97;1.92;;;;;;;-147.27;100.00;65176.34;5030193;28;20045;-60
2020/12/25 05:34:56;;;;;;;9.27;1.92;;;;;;;-147.27;100.00;65176.34;5030983;28;20061;-60
2020/12/25 05:37:33;;;;;;;5.40;1.42;;;;;;;-147.27;100.00;65176.34;5031033;28;20049;-60
2020/12/25 05:40:02;;;;;;;8.57;1.80;;;;;;;-147.27;100.00;65176.34;5029222;28;20095;-58
2020/12/25 05:42:28;;;;;;;7.03;1.73;;;;;;;-147.27;100.00;65176.34;5031204;28;20081;-60
2020/12/25 05:44:53;;;;;;;6.20;1.50;;;;;;;-147.27;100.00;65176.34;5031204;28;20065;-61
2020/12/25 05:47:19;;;;;;;8.83;1.40;;;;;;;-147.27;100.00;65176.34;5030474;28;20152;-60
2020/12/25 05:49:44;;;;;;;6.40;1.95;;;;;;;-147.27;100.00;65176.34;5029852;28;20596;-60
2020/12/25 05:52:13;;;;;;;6.07;1.35;;;;;;;-147.27;100.00;65176.34;5030476;28;20433;-60
2020/12/25 05:54:45;;;;;;;8.00;3.03;;;;;;;-147.27;100.00;65176.34;5030989;28;20546;-60
2020/12/25 05:57:13;;;;;;;11.18;2.17;;;;;;;-147.27;100.00;65176.34;5030121;28;20512;-60
2020/12/25 05:59:44;;;;;;;6.55;2.20;;;;;;;-147.27;100.00;65176.34;5032697;28;20095;-60
2020/12/25 06:02:14;;;;;;;12.40;2.40;;;;;;;-147.27;100.00;65176.34;5019048;28;20092;-60
2020/12/25 06:04:40;;;;;;;4.78;1.70;;;;;;;-147.27;100.00;65176.34;5030152;28;20038;-60
2020/12/25 06:07:07;;;;;;;7.13;2.15;;;;;;;-147.27;100.00;65176.34;5013049;28;20092;-60
2020/12/25 06:09:33;;;;;;;6.53;1.33;;;;;;;-147.27;100.00;65176.34;5015022;28;20092;-60
2020/12/25 06:12:00;;;;;;;4.10;1.70;;;;;;;-147.27;100.00;65176.34;5013682;28;20073;-60
2020/12/25 06:14:26;;;;;;;9.68;1.85;;;;;;;-147.27;100.00;65176.34;5014850;28;20042;-60
2020/12/25 06:16:58;;;;;;;6.65;1.80;;;;;;;-147.27;100.00;65176.34;5015051;28;20030;-59
2020/12/25 06:19:40;;;;;;;12.07;1.80;;;;;;;-147.27;100.00;65176.34;5014413;28;20088;-60
2020/12/25 06:22:13;;;;;;;8.18;1.80;;;;;;;-147.27;100.00;65176.34;5015679;28;20038;-60
2020/12/25 06:24:40;;;;;;;10.25;1.65;;;;;;;-147.27;100.00;65176.34;5015800;28;20056;-65
2020/12/25 06:27:06;;;;;;;11.57;2.15;;;;;;;-147.27;100.00;65176.34;5018979;28;20026;-60
2020/12/25 06:29:32;;;;;;;10.47;2.83;;;;;;;-147.27;100.00;65176.34;5017129;28;20178;-61
2020/12/25 06:32:00;;;;;;;7.88;1.77;;;;;;;-147.27;100.00;65176.34;5015345;28;20034;-60
2020/12/25 06:34:48;;;;;;;10.35;1.85;;;;;;;-147.27;100.00;65176.34;5014198;28;20041;-60
2020/12/25 06:37:16;;;;;;;9.50;1.90;;;;;;;-147.27;100.00;65176.34;5013786;28;20159;-59
2020/12/25 06:39:51;;;;;;;13.18;2.58;;;;;;;-147.27;100.00;65176.34;5014388;28;20402;-60
2020/12/25 06:42:32;;;;;;;13.38;2.22;;;;;;;-147.27;100.00;65176.34;5013579;28;20486;-61
2020/12/25 06:45:03;;;;;;;9.13;2.35;;;;;;;-147.27;100.00;65176.34;5014303;28;20145;-60
2020/12/25 06:47:32;;;;;;;7.25;2.08;;;;;;;-147.27;100.00;65176.34;5029763;28;20042;-59
2020/12/25 06:49:58;;;;;;;19.08;2.72;;;;;;;-147.27;100.00;65176.34;5029241;28;20029;-59
2020/12/25 06:52:28;;;;;;;9.98;2.58;;;;;;;-147.27;100.00;65176.34;5028753;28;20267;-60
2020/12/25 06:54:55;;;;;;;11.48;2.03;;;;;;;-147.27;100.00;65176.34;5014134;28;20034;-60
2020/12/25 06:57:28;;;;;;;4.53;1.75;;;;;;;-147.27;100.00;65176.34;5013231;28;20332;-60
2020/12/25 06:59:58;;;;;;;7.10;2.25;;;;;;;-147.27;100.00;65176.34;5013421;28;20097;-60
2020/12/25 07:02:25;;;;;;;7.75;1.77;;;;;;;-147.27;100.00;65176.34;5022652;28;20029;-60
2020/12/25 07:04:59;;;;;;;8.45;2.17;;;;;;;-147.27;100.00;65176.34;5033187;28;20033;-61
2020/12/25 07:07:32;;;;;;;9.88;1.70;;;;;;;-147.27;100.00;65176.34;5032519;28;20410;-59
2020/12/25 07:10:07;;;;;;;13.55;2.78;;;;;;;-147.27;100.00;65176.34;5032611;28;20178;-60
2020/12/25 07:12:32;;;;;;;13.73;2.00;;;;;;;-147.27;100.00;65176.34;5021338;28;20436;-58
2020/12/25 07:14:57;;;;;;;10.67;2.33;;;;;;;-147.27;100.00;65176.34;5022069;28;20021;-60
2020/12/25 07:17:23;;;;;;;10.60;1.80;;;;;;;-147.27;100.00;65176.34;5022179;28;20040;-59
2020/12/25 07:19:48;;;;;;;5.10;1.90;;;;;;;-147.27;100.00;65176.34;5020772;28;20117;-59
2020/12/25 07:22:14;;;;;;;6.17;2.07;;;;;;;-147.27;100.00;65176.34;5021788;28;20366;-60
2020/12/25 07:24:41;;;;;;;8.93;1.90;;;;;;;-147.27;100.00;65176.34;5022412;28;20038;-60
2020/12/25 07:27:11;;;;;;;7.93;1.88;;;;;;;-147.27;100.00;65176.34;5020020;28;20025;-55
2020/12/25 07:29:38;;;;;;;8.50;1.88;;;;;;;-147.27;100.00;65176.34;5021620;28;20430;-59
2020/12/25 07:32:04;;;;;;;6.15;2.05;;;;;;;-147.27;100.00;65176.34;5022633;28;20044;-60
2020/12/25 07:34:30;;;;;;;8.00;1.73;;;;;;;-147.27;100.00;65176.34;5021554;28;20030;-59
2020/12/25 07:36:57;;;;;;;12.10;2.30;;;;;;;-147.27;100.00;65176.34;5021852;28;20037;-60
2020/12/25 07:39:23;;;;;;;;;;;;;;;-147.27;100.00;65176.34;5022581;28;20099;-60
2020/12/25 07:41:50;;;;;;;10.02;2.08;;;;;;;-147.27;100.00;65176.34;5020532;28;20000;-60
2020/12/25 07:44:17;;;;;;;12.73;2.50;;;;;;;-147.27;100.00;65176.34;5021105;28;20087;-59
2020/12/25 07:46:43;;;;;;;7.57;2.53;;;;;;;-147.27;100.00;65176.34;5022600;28;20033;-60
2020/12/25 07:49:09;;;;;;;16.25;2.53;;;;;;;-147.27;100.00;65176.34;5020319;28;20110;-58
2020/12/25 07:51:35;;;;;;;13.32;3.00;;;;;;;-147.27;100.00;65176.34;5021092;28;20473;-60
2020/12/25 07:54:02;;;;;;;6.38;1.90;;;;;;;-147.27;100.00;65176.34;5020910;28;20029;-60
2020/12/25 07:56:30;;;;;;;4.80;1.88;;;;;;;-147.27;100.00;65176.34;5036973;28;20034;-60
2020/12/25 07:58:57;;;;;;;14.32;2.30;;;;;;;-147.27;100.00;65176.34;5020617;28;20108;-60
2020/12/25 08:01:25;;;;;;;9.35;2.25;;;;;;;-147.27;100.00;65176.34;5019724;28;20441;-60
2020/12/25 08:03:51;;;;;;;6.28;2.13;;;;;;;-147.27;100.00;65176.34;5021393;28;20057;-61
2020/12/25 08:06:21;;;;;;;13.52;2.00;;;;;;;-147.27;100.00;65176.34;5019757;28;20033;-60
2020/12/25 08:09:05;;;;;;;12.77;2.40;;;;;;;-147.27;100.00;65176.34;5021896;28;20069;-59
2020/12/25 08:11:31;;;;;;;8.68;2.28;;;;;;;-147.27;100.00;65176.34;5021311;28;20029;-61
2020/12/25 08:14:02;;;;;;;11.95;2.88;;;;;;;-147.27;100.00;65176.34;5017042;28;20036;-61
2020/12/25 08:16:30;;;;;;;10.35;2.97;;;;;;;-147.27;100.00;65176.34;5011849;28;20065;-61
2020/12/25 08:18:56;;;;;;;10.93;2.45;;;;;;;-147.27;100.00;65176.34;5012732;28;20042;-61
2020/12/25 08:21:21;;;;;;;12.30;3.00;;;;;;;-147.27;100.00;65176.34;5011193;28;20034;-60
2020/12/25 08:23:47;;;;;;;13.87;3.70;;;;;;;-147.27;100.00;65176.34;5012362;28;20034;-60
2020/12/25 08:26:13;;;;;;;12.67;2.73;;;;;;;-147.27;100.00;65176.34;5011632;28;20045;-61
2020/12/25 08:28:42;;;;;;;11.10;3.00;;;;;;;-147.27;100.00;65176.34;5012200;28;20038;-61
2020/12/25 08:31:15;;;;;;;17.58;3.17;;;;;;;-147.27;100.00;65176.34;5011055;28;20374;-61
2020/12/25 08:33:40;;;;;;;12.65;2.60;;;;;;;-147.27;100.00;65176.34;5010826;28;20120;-61
2020/12/25 08:36:10;;;;;;;6.87;2.40;;;;;;;-147.27;100.00;65176.34;5012433;28;20118;-60
2020/12/25 08:38:41;;;;;;;12.27;3.25;;;;;;;-147.27;100.00;65176.34;5027313;28;20080;-60
2020/12/25 08:41:06;;;;;;;13.68;2.15;;;;;;;-147.27;100.00;65176.34;5010915;28;20053;-60
2020/12/25 08:43:32;;;;;;;13.23;2.53;;;;;;;-147.27;100.00;65176.34;5011240;28;20038;-62
2020/12/25 08:45:59;;;;;;;5.90;1.97;;;;;;;-147.27;100.00;65176.34;5010789;28;20108;-60
2020/12/25 08:48:26;;;;;;;8.45;2.22;;;;;;;-147.27;100.00;65176.34;5011269;28;20045;-61
2020/12/25 08:51:04;;;;;;;;;;;;;;;-147.27;100.00;65176.34;5012231;28;20038;-61
2020/12/25 08:53:30;;;;;;;12.20;1.55;;;;;;;-147.27;100.00;65176.34;5011291;28;20014;-60
2020/12/25 08:55:55;;;;;;;9.77;1.50;;;;;;;-147.27;100.00;65176.34;5010939;28;20092;-60
2020/12/25 08:58:23;;;;;;;8.27;1.60;;;;;;;-147.27;100.00;65176.34;5026345;28;20045;-59
2020/12/25 09:00:59;;;;;;;8.50;2.17;;;;;;;-147.27;100.00;65176.34;5012100;28;20056;-60
2020/12/25 09:03:35;;;;;;;9.15;1.60;;;;;;;-147.27;100.00;65176.34;5010440;28;20385;-61
2020/12/25 09:06:01;;;;;;;5.82;1.50;;;;;;;-147.27;100.00;65176.34;5012558;28;20108;-60
2020/12/25 09:08:27;;;;;;;18.40;2.03;;;;;;;-147.27;100.00;65176.34;5011359;28;20034;-59
2020/12/25 09:10:52;;;;;;;12.25;1.92;;;;;;;-147.27;100.00;65176.34;5012270;28;20046;-61
2020/12/25 09:13:18;;;;;;;10.67;3.20;;;;;;;-147.27;100.00;65176.34;5011491;28;20038;-60
2020/12/25 09:15:43;;;;;;;16.03;2.00;;;;;;;-147.27;100.00;65176.34;5010794;28;20041;-60
2020/12/25 09:18:09;;;;;;;12.23;2.50;;;;;;;-147.27;100.00;65176.34;5012080;28;20444;-59
2020/12/25 09:20:34;;;;;;;8.23;1.90;;;;;;;-147.27;100.00;65176.34;5011134;28;20077;-60
2020/12/25 09:22:59;;;;;;;13.00;3.53;;;;;;;-147.27;100.00;65176.34;5012032;28;20068;-60
2020/12/25 09:25:25;;;;;;;12.63;3.33;;;;;;;-147.27;100.00;65176.34;5010776;28;20021;-61
2020/12/25 09:27:50;;;;;;;14.23;2.23;;;;;;;-147.27;100.00;65176.34;5024045;28;20041;-59
2020/12/25 09:30:16;;;;;;;15.33;2.90;;;;;;;-147.27;100.00;65176.34;5020878;28;20123;-61
2020/12/25 09:32:41;;;;;;;9.83;3.73;;;;;;;-147.27;100.00;65176.34;5020234;28;20116;-60
2020/12/25 09:35:07;;;;;;;12.70;2.20;;;;;;;-147.27;100.00;65176.34;5027138;28;20195;-60
2020/12/25 09:37:32;;;;;;;13.37;2.83;;;;;;;-147.27;100.00;65176.34;5027488;28;20076;-59
2020/12/25 09:39:58;;;;;;;17.17;4.83;;;;;;;-147.27;100.00;65176.34;5025978;28;20030;-60
2020/12/25 09:42:23;;;;;;;11.57;2.57;;;;;;;-147.27;100.00;65176.34;5052058;28;20037;-61
2020/12/25 09:44:49;;;;;;;12.30;2.60;;;;;;;-147.27;100.00;65176.34;5037595;28;20458;-61
2020/12/25 09:47:17;;;;;;;6.57;1.90;;;;;;;-147.27;100.00;65176.34;5037499;28;20508;-59
2020/12/25 09:49:43;;;;;;;9.77;2.30;;;;;;;-147.27;100.00;65176.34;5033051;28;20044;-61
2020/12/25 09:52:08;;;;;;;19.07;2.53;;;;;;;-147.27;100.00;65176.34;5037381;28;20112;-61
2020/12/25 09:54:34;;;;;;;9.97;2.40;;;;;;;-147.27;100.00;65176.34;5035408;28;20378;-59
2020/12/25 09:56:59;;;;;;;7.03;1.77;;;;;;;-147.27;100.00;65176.34;5037555;28;20057;-60
2020/12/25 09:59:25;;;;;;;9.67;2.50;;;;;;;-147.27;100.00;65176.34;5033969;28;20232;-59
2020/12/25 10:01:51;;;;;;;13.73;2.93;;;;;;;-147.27;100.00;65176.34;5029033;28;20502;-60
2020/12/25 10:04:17;;;;;;;8.20;1.90;;;;;;;-147.27;100.00;65176.34;5023560;28;20655;-61
2020/12/25 10:06:43;;;;;;;12.13;2.30;;;;;;;-147.27;100.00;65176.34;5035742;28;20041;-59
2020/12/25 10:09:08;;;;;;;10.00;1.87;;;;;;;-147.27;100.00;65176.34;5036922;28;20465;-60
2020/12/25 10:11:34;;;;;;;7.15;2.00;;;;;;;-147.27;100.00;65176.34;5036038;28;20395;-59
2020/12/25 10:13:59;;;;;;;5.43;1.73;;;;;;;-147.27;100.00;65176.34;5030245;28;20125;-61
2020/12/25 10:16:24;;;;;;;9.10;1.93;;;;;;;-147.27;100.00;65176.34;5016910;28;20037;-62
2020/12/25 10:18:50;;;;;;;8.10;1.77;;;;;;;-147.27;100.00;65176.34;5015596;28;20438;-61
2020/12/25 10:21:17;;;;;;;8.33;2.90;;;;;;;-147.27;100.00;65176.34;5017607;28;20038;-61
2020/12/25 10:23:43;;;;;;;6.53;1.97;;;;;;;-147.27;100.00;65176.34;5017119;28;20038;-60
2020/12/25 10:26:10;;;;;;;6.22;1.80;;;;;;;-147.27;100.00;65176.34;5019807;28;20095;-60
2020/12/25 10:28:36;;;;;;;6.00;1.67;;;;;;;-147.27;100.00;65176.34;5018945;28;20034;-61
2020/12/25 10:31:01;;;;;;;4.65;1.40;;;;;;;-147.27;100.00;65176.34;5015849;28;20033;-61
2020/12/25 10:33:27;;;;;;;3.95;1.25;;;;;;;-147.27;100.00;65176.34;5016169;28;20117;-60
2020/12/25 10:35:52;;;;;;;9.50;2.50;;;;;;;-147.27;100.00;65176.34;5017011;28;20324;-60
2020/12/25 10:38:18;;;;;;;11.52;1.75;;;;;;;-147.27;100.00;65176.34;5016823;28;20643;-60
2020/12/25 10:40:43;;;;;;;6.63;1.65;;;;;;;-147.27;100.00;65176.34;5016026;28;20156;-60
2020/12/25 10:43:15;;;;;;;9.82;1.50;;;;;;;-147.27;100.00;65176.34;5016879;28;20042;-60
2020/12/25 10:45:40;;;;;;;5.60;2.17;;;;;;;-147.27;100.00;65176.34;5014559;28;20369;-60
2020/12/25 10:48:06;;;;;;;8.75;1.85;;;;;;;-147.27;100.00;65176.34;5012322;28;20084;-61
2020/12/25 10:50:31;;;;;;;4.45;1.70;;;;;;;-147.27;100.00;65176.34;5013216;28;20482;-60
2020/12/25 10:52:57;;;;;;;7.13;1.35;;;;;;;-147.27;100.00;65176.34;5014000;28;20415;-61
2020/12/25 10:55:22;;;;;;;4.32;1.27;;;;;;;-147.27;100.00;65176.34;5013444;28;20034;-61
2020/12/25 10:57:48;;;;;;;12.43;1.63;;;;;;;-147.27;100.00;65176.34;5013780;28;20068;-59
2020/12/25 11:00:13;;;;;;;5.45;2.17;;;;;;;-147.27;100.00;65176.34;5013564;28;20117;-60
2020/12/25 11:02:39;;;;;;;4.30;1.55;;;;;;;-147.27;100.00;65176.34;5011604;28;20051;-59
2020/12/25 11:05:05;;;;;;;14.15;1.80;;;;;;;-147.27;100.00;65176.34;5012447;28;20042;-60
2020/12/25 11:07:31;;;;;;;4.88;1.55;;;;;;;-147.27;100.00;65176.34;5012776;28;20062;-61
2020/12/25 11:09:56;;;;;;;5.80;1.33;;;;;;;-147.27;100.00;65176.34;5013557;28;20085;-59